Time;durP1;ratioP1;P1;durP2;ratioP2;P2;SDS_P1;SDS_P2;PMS_P1;PMS_P2;Temp;Humidity;BMP_temperature;BMP_pressure;BME280_temperature;BME280_humidity;BME280_pressure;Samples;Min_cycle;Max_cycle;Signal;HPM_P1;HPM_P2
2023/03/16 00:00:08;;;;;;;221.10;73.00;;;1.00;99.90;;;-0.42;100.00;97704.34;4917762;29;20895;-82
2023/03/16 00:02:34;;;;;;;214.95;69.57;;;1.00;99.90;;;-0.42;100.00;97706.94;4917555;29;20460;-82
2023/03/16 00:05:00;;;;;;;225.55;76.60;;;1.00;99.90;;;-0.41;100.00;97705.16;4917661;29;20883;-82
2023/03/16 00:07:26;;;;;;;176.63;63.60;;;1.00;99.90;;;-0.43;100.00;97707.13;4917741;29;20781;-82
2023/03/16 00:09:53;;;;;;;206.57;71.80;;;1.00;99.90;;;-0.44;100.00;97705.50;4917717;29;20500;-82
2023/03/16 00:12:21;;;;;;;232.32;74.85;;;1.00;99.90;;;-0.43;100.00;97704.50;4917181;29;20787;-81
2023/03/16 00:14:48;;;;;;;291.80;93.57;;;1.00;99.90;;;-0.41;100.00;97705.97;4917514;29;20409;-82
2023/03/16 00:17:20;;;;;;;295.48;91.20;;;1.00;99.90;;;-0.45;100.00;97707.28;4917472;29;20458;-82
2023/03/16 00:19:47;;;;;;;264.98;92.93;;;1.00;99.90;;;-0.43;100.00;97704.50;4917552;29;20496;-82
2023/03/16 00:22:15;;;;;;;327.00;103.95;;;1.00;99.90;;;-0.38;100.00;97709.22;4917013;29;20465;-82
2023/03/16 00:24:42;;;;;;;325.20;106.70;;;0.90;99.90;;;-0.34;100.00;97707.88;4917279;29;20416;-82
2023/03/16 00:27:08;;;;;;;209.70;83.13;;;1.00;99.90;;;-0.45;100.00;97703.88;4917283;29;20431;-82
2023/03/16 00:29:35;;;;;;;275.88;91.43;;;0.90;99.90;;;-0.45;100.00;97706.47;4917208;29;20895;-82
2023/03/16 00:32:02;;;;;;;270.50;84.55;;;0.90;99.90;;;-0.47;100.00;97706.66;4916583;29;20431;-82
2023/03/16 00:34:28;;;;;;;314.48;94.13;;;0.90;99.90;;;-0.47;100.00;97709.28;4917283;29;20409;-82
2023/03/16 00:36:54;;;;;;;319.63;102.43;;;0.90;99.90;;;-0.43;100.00;97699.31;4916842;29;20417;-82
2023/03/16 00:39:21;;;;;;;308.02;95.50;;;1.00;99.90;;;-0.47;100.00;97708.47;4917057;29;20476;-82
2023/03/16 00:41:47;;;;;;;297.25;91.70;;;0.90;99.90;;;-0.51;100.00;97704.56;4916813;29;20405;-82
2023/03/16 00:44:13;;;;;;;327.23;103.22;;;0.90;99.90;;;-0.40;100.00;97711.97;4917057;29;20513;-82
2023/03/16 00:46:41;;;;;;;280.70;87.30;;;0.90;99.90;;;-0.52;100.00;97702.94;4916929;29;20504;-82
2023/03/16 00:49:08;;;;;;;280.38;89.95;;;0.90;99.90;;;-0.54;100.00;97710.94;4917143;29;20421;-82
2023/03/16 00:51:34;;;;;;;310.40;95.07;;;0.90;99.90;;;-0.61;100.00;97710.03;4916477;29;20550;-82
2023/03/16 00:54:00;;;;;;;292.70;83.50;;;0.80;99.90;;;-0.64;100.00;97707.75;4916869;29;20409;-82
2023/03/16 00:56:26;;;;;;;291.58;84.80;;;0.80;99.90;;;-0.66;100.00;97706.28;4916035;29;20428;-82
2023/03/16 00:58:56;;;;;;;303.90;91.90;;;0.70;99.90;;;-0.66;100.00;97706.28;4916707;29;20589;-82
2023/03/16 01:01:22;;;;;;;340.10;98.85;;;0.70;99.90;;;-0.66;100.00;97696.72;4916490;29;20409;-82
2023/03/16 01:03:49;;;;;;;219.27;74.47;;;0.80;99.90;;;-0.73;100.00;97703.56;4916651;29;20417;-82
2023/03/16 01:06:19;;;;;;;300.53;93.60;;;0.70;99.90;;;-0.69;100.00;97704.06;4916598;29;20416;-82
2023/03/16 01:08:46;;;;;;;272.57;80.47;;;0.70;99.90;;;-0.77;100.00;97701.50;4915251;29;20416;-82
2023/03/16 01:11:15;;;;;;;273.98;83.47;;;0.60;99.90;;;-0.80;100.00;97695.66;4916267;29;20435;-82
2023/03/16 01:13:42;;;;;;;205.80;68.38;;;0.60;99.90;;;-0.81;100.00;97698.44;4916255;29;20416;-81
2023/03/16 01:16:09;;;;;;;291.38;86.80;;;0.60;99.90;;;-0.81;100.00;97693.22;4916374;29;20472;-82
2023/03/16 01:18:35;;;;;;;254.98;77.55;;;0.60;99.90;;;-0.84;100.00;97696.19;4916394;29;21006;-81
2023/03/16 01:21:06;;;;;;;245.40;71.70;;;0.60;99.90;;;-0.85;100.00;97694.56;4916324;29;21053;-82
2023/03/16 01:23:32;;;;;;;271.27;78.80;;;0.60;99.90;;;-0.85;100.00;97695.38;4916261;29;20449;-82
2023/03/16 01:25:59;;;;;;;300.05;89.32;;;0.60;99.90;;;-0.79;100.00;97694.69;4916182;29;20517;-81
2023/03/16 01:28:29;;;;;;;281.85;84.78;;;0.60;99.90;;;-0.89;100.00;97691.50;4916282;29;20410;-82
2023/03/16 01:31:00;;;;;;;201.82;68.35;;;0.60;99.90;;;-0.90;100.00;97694.25;4930541;29;20799;-81
2023/03/16 01:33:27;;;;;;;190.27;66.43;;;0.50;99.90;;;-0.91;100.00;97690.06;4915925;29;20512;-81
2023/03/16 01:35:55;;;;;;;272.25;82.80;;;0.50;99.90;;;-0.87;100.00;97681.75;4916025;29;20914;-82
2023/03/16 01:38:22;;;;;;;257.88;80.22;;;0.50;99.90;;;-0.87;100.00;97689.53;4915869;29;20512;-81
2023/03/16 01:40:50;;;;;;;226.88;70.78;;;0.50;99.90;;;-0.92;100.00;97685.84;4915890;29;20417;-81
2023/03/16 01:43:18;;;;;;;205.15;65.40;;;0.50;99.90;;;-0.94;100.00;97688.59;4915716;29;20413;-82
2023/03/16 01:46:22;;;;;;;232.32;78.53;;;0.50;99.90;;;-0.89;100.00;97688.06;4915942;29;20500;-82
2023/03/16 01:49:05;;;;;;;268.58;88.80;;;0.50;99.90;;;-0.88;100.00;97684.50;4915970;29;20910;-82
2023/03/16 01:51:41;;;;;;;278.67;93.80;;;0.50;99.90;;;-0.80;100.00;97682.66;4916120;29;20440;-81
2023/03/16 01:54:18;;;;;;;259.15;84.40;;;0.60;99.90;;;-0.73;100.00;97682.78;4916213;29;20835;-81
2023/03/16 01:56:50;;;;;;;258.25;84.47;;;0.60;99.90;;;-0.77;100.00;97681.53;4916178;29;20752;-81
2023/03/16 01:59:20;;;;;;;220.37;73.53;;;0.60;99.90;;;-0.89;100.00;97675.09;4916099;29;20448;-82
2023/03/16 02:01:47;;;;;;;178.15;64.93;;;0.50;99.90;;;-0.93;100.00;97679.84;4915270;29;20424;-81
2023/03/16 02:04:30;;;;;;;265.95;82.40;;;0.50;99.90;;;-0.93;100.00;97671.22;4915781;29;20439;-82
2023/03/16 02:06:58;;;;;;;214.63;72.28;;;0.50;99.90;;;-0.91;100.00;97674.47;4915523;29;20412;-82
2023/03/16 02:09:26;;;;;;;253.10;79.03;;;0.50;99.90;;;-0.98;100.00;97673.53;4914504;29;20480;-82
2023/03/16 02:11:53;;;;;;;181.02;62.50;;;0.40;99.90;;;-1.02;100.00;97662.66;4913695;29;20848;-81
2023/03/16 02:14:19;;;;;;;259.30;81.07;;;0.40;99.90;;;-1.00;100.00;97660.72;4915415;29;20468;-81
2023/03/16 02:16:46;;;;;;;234.60;71.22;;;0.40;99.90;;;-1.02;100.00;97664.44;4915369;29;20410;-82
2023/03/16 02:19:25;;;;;;;212.35;67.68;;;0.40;99.90;;;-1.02;100.00;97669.66;4915357;29;20412;-81
2023/03/16 02:22:01;;;;;;;255.52;81.80;;;0.40;99.90;;;-1.02;100.00;97660.06;4914876;29;20410;-82
2023/03/16 02:24:29;;;;;;;258.77;81.80;;;0.40;99.90;;;-1.04;100.00;97656.00;4915229;29;20498;-81
2023/03/16 02:27:00;;;;;;;301.55;102.75;;;0.40;99.90;;;-0.97;100.00;97657.75;4915075;29;20410;-81
2023/03/16 02:29:53;;;;;;;320.80;104.30;;;0.40;99.90;;;-1.05;100.00;97663.00;5088008;28;20351;-81
2023/03/16 02:32:22;;;;;;;323.52;111.75;;;0.40;99.90;;;-1.00;100.00;97663.31;5067288;28;20400;-81
2023/03/16 02:34:47;;;;;;;309.48;108.90;;;0.30;99.90;;;-1.05;100.00;97659.63;5067703;28;20729;-81
2023/03/16 02:37:14;;;;;;;327.93;114.10;;;0.30;99.90;;;-0.99;100.00;97659.75;5067498;28;20409;-82
2023/03/16 02:39:42;;;;;;;320.55;112.70;;;0.40;99.90;;;-0.98;100.00;97658.75;5067476;28;20404;-81
2023/03/16 02:42:14;;;;;;;304.37;104.80;;;0.40;99.90;;;-0.99;100.00;97651.94;5067110;28;20546;-81
2023/03/16 02:44:42;;;;;;;320.83;110.47;;;0.40;99.90;;;-1.00;100.00;97652.09;5067649;28;20407;-81
2023/03/16 02:47:15;;;;;;;301.77;104.97;;;0.40;99.90;;;-1.00;100.00;97652.09;5067358;28;20812;-81
2023/03/16 02:49:44;;;;;;;288.52;98.38;;;0.40;99.90;;;-1.05;100.00;97647.41;5067270;28;20401;-81
2023/03/16 02:52:11;;;;;;;285.88;100.72;;;0.40;99.90;;;-1.02;100.00;97646.28;5066932;28;20397;-81
2023/03/16 02:54:37;;;;;;;333.00;116.60;;;0.40;99.90;;;-0.95;100.00;97652.38;5067213;28;20485;-81
2023/03/16 02:57:03;;;;;;;286.52;101.72;;;0.40;99.90;;;-1.00;100.00;97646.91;5067157;28;20405;-82
2023/03/16 02:59:30;;;;;;;336.03;113.30;;;0.40;99.90;;;-1.00;100.00;97645.13;5066964;28;20414;-81
2023/03/16 03:01:56;;;;;;;253.90;94.55;;;0.40;99.90;;;-1.03;100.00;97640.25;5066860;28;20758;-81
2023/03/16 03:04:23;;;;;;;231.35;90.28;;;0.40;99.90;;;-1.04;100.00;97628.25;5067189;28;20413;-81
2023/03/16 03:06:50;;;;;;;324.60;102.68;;;0.30;99.90;;;-1.05;100.00;97637.00;5067059;28;20740;-81
2023/03/16 03:09:17;;;;;;;308.52;103.13;;;0.40;99.90;;;-1.05;100.00;97637.00;5066899;28;20888;-81
2023/03/16 03:11:43;;;;;;;281.35;104.90;;;0.30;99.90;;;-1.04;100.00;97640.44;5082165;28;20488;-81
2023/03/16 03:14:09;;;;;;;263.15;95.75;;;0.30;99.90;;;-1.05;100.00;97631.03;5066977;28;21012;-81
2023/03/16 03:16:35;;;;;;;293.25;99.15;;;0.30;99.90;;;-1.07;100.00;97627.81;5066921;28;20882;-81
2023/03/16 03:19:01;;;;;;;306.58;106.07;;;0.30;99.90;;;-1.08;100.00;97634.78;5066706;28;20421;-81
2023/03/16 03:21:29;;;;;;;304.77;102.93;;;0.30;99.90;;;-1.07;100.00;97639.00;5066498;28;20473;-81
2023/03/16 03:23:55;;;;;;;241.95;93.63;;;0.30;99.90;;;-1.09;100.00;97638.34;5066653;28;20409;-81
2023/03/16 03:26:21;;;;;;;331.35;112.70;;;0.30;99.90;;;-1.03;100.00;97629.88;5066567;28;20407;-82
2023/03/16 03:28:47;;;;;;;316.87;108.73;;;0.30;99.90;;;-1.04;100.00;97617.03;5080200;28;20415;-81
2023/03/16 03:31:14;;;;;;;309.23;109.68;;;0.30;99.90;;;-1.04;100.00;97617.03;5086635;28;20398;-81
2023/03/16 03:33:40;;;;;;;336.98;116.35;;;0.30;99.90;;;-0.97;100.00;97615.38;5115700;22;20429;-72
2023/03/16 03:36:06;;;;;;;289.23;103.97;;;0.40;99.90;;;-1.06;100.00;97616.44;5107001;28;20882;-72
2023/03/16 03:38:34;;;;;;;276.38;98.22;;;0.30;99.90;;;-1.09;100.00;97617.56;5088650;28;20429;-73
2023/03/16 03:41:00;;;;;;;307.92;104.72;;;0.30;99.90;;;-1.06;100.00;97616.44;5092795;28;20417;-73
2023/03/16 03:43:26;;;;;;;335.65;109.78;;;0.30;99.90;;;-1.06;100.00;97617.25;5092967;28;20390;-73
2023/03/16 03:45:56;;;;;;;290.55;93.72;;;0.30;99.90;;;-1.15;100.00;97609.66;5093197;28;20394;-73
2023/03/16 03:48:22;;;;;;;267.52;90.13;;;0.30;99.90;;;-1.19;100.00;97604.81;5093113;28;20432;-72
2023/03/16 03:50:48;;;;;;;278.27;89.45;;;0.20;99.90;;;-1.21;100.00;97611.16;5075053;28;20834;-72
2023/03/16 03:53:14;;;;;;;237.47;80.77;;;0.20;99.90;;;-1.23;100.00;97613.13;5092818;28;20485;-72
2023/03/16 03:55:41;;;;;;;240.52;81.28;;;0.20;99.90;;;-1.25;100.00;97613.28;5091940;28;20417;-72
2023/03/16 03:58:07;;;;;;;272.90;90.75;;;0.20;99.90;;;-1.24;100.00;97611.50;5084465;28;20402;-73
2023/03/16 04:00:34;;;;;;;317.00;106.32;;;0.20;99.90;;;-1.21;100.00;97611.16;5088034;28;20403;-72
2023/03/16 04:03:00;;;;;;;312.80;101.35;;;0.20;99.90;;;-1.21;100.00;97608.56;5089112;28;20441;-73
2023/03/16 04:05:26;;;;;;;280.20;94.20;;;0.20;99.90;;;-1.29;100.00;97604.22;5092813;28;20402;-72
2023/03/16 04:07:56;;;;;;;288.92;95.50;;;0.10;99.90;;;-1.31;100.00;97610.56;5092744;28;20978;-73
2023/03/16 04:10:22;;;;;;;301.50;101.32;;;0.10;99.90;;;-1.29;100.00;97608.63;5092689;28;21005;-73
2023/03/16 04:12:49;;;;;;;322.48;101.88;;;0.10;99.90;;;-1.36;100.00;97613.69;5092387;28;20394;-73
2023/03/16 04:15:15;;;;;;;285.60;95.43;;;0.10;99.90;;;-1.35;100.00;97607.47;5084034;28;20453;-73
2023/03/16 04:17:41;;;;;;;310.92;101.88;;;0.10;99.90;;;-1.33;100.00;97609.91;5092243;28;20894;-73
2023/03/16 04:20:13;;;;;;;299.80;107.60;;;0.10;99.90;;;-1.25;100.00;97615.06;5092179;28;20402;-74
2023/03/16 04:22:41;;;;;;;335.70;110.60;;;0.10;99.90;;;-1.23;100.00;97603.53;5086626;28;20824;-73
2023/03/16 04:25:08;;;;;;;293.33;99.07;;;0.10;99.90;;;-1.28;100.00;97610.22;5089900;28;20429;-74
2023/03/16 04:27:35;;;;;;;322.30;108.85;;;0.10;99.90;;;-1.24;100.00;97594.13;5092254;28;20413;-73
2023/03/16 04:30:04;;;;;;;322.08;105.13;;;0.10;99.90;;;-1.24;100.00;97591.53;5092282;28;20408;-73
2023/03/16 04:32:31;;;;;;;293.70;100.10;;;0.10;99.90;;;-1.25;100.00;97592.50;5091742;28;20421;-73
2023/03/16 04:34:57;;;;;;;307.17;104.00;;;0.10;99.90;;;-1.20;100.00;97592.78;5092220;28;20417;-73
2023/03/16 04:37:23;;;;;;;307.33;101.72;;;0.20;99.90;;;-1.26;100.00;97585.69;5092160;28;20398;-73
2023/03/16 04:39:49;;;;;;;310.70;105.25;;;0.10;99.90;;;-1.21;100.00;97592.97;5092173;28;20417;-73
2023/03/16 04:42:14;;;;;;;308.23;105.88;;;0.10;99.90;;;-1.26;100.00;97587.47;5091767;28;20398;-73
2023/03/16 04:44:43;;;;;;;320.38;108.13;;;0.10;99.90;;;-1.25;100.00;97582.13;5092061;28;20416;-72
2023/03/16 04:47:11;;;;;;;303.55;98.55;;;0.10;99.90;;;-1.26;100.00;97590.06;5089856;28;20402;-73
2023/03/16 04:49:36;;;;;;;266.67;90.88;;;0.10;99.90;;;-1.26;100.00;97587.47;5071587;28;20424;-74
2023/03/16 04:52:03;;;;;;;263.05;87.35;;;0.10;99.90;;;-1.28;100.00;97581.66;5070256;28;20411;-73
2023/03/16 04:54:29;;;;;;;313.13;96.22;;;0.10;99.90;;;-1.27;100.00;97586.66;5071604;28;20392;-74
2023/03/16 04:56:55;;;;;;;299.40;93.10;;;0.10;99.90;;;-1.31;100.00;97588.00;5083109;28;20409;-74
2023/03/16 04:59:21;;;;;;;279.13;87.63;;;0.10;99.90;;;-1.34;100.00;97588.34;5091664;28;20463;-74
2023/03/16 05:01:48;;;;;;;283.48;87.10;;;0.10;99.90;;;-1.37;100.00;97590.47;5085854;28;20406;-74
2023/03/16 05:04:15;;;;;;;324.73;95.55;;;0.10;99.90;;;-1.38;100.00;97588.84;5079172;28;20959;-74
2023/03/16 05:06:41;;;;;;;290.17;88.40;;;0.00;99.90;;;-1.44;100.00;97592.94;5081988;28;20412;-74
2023/03/16 05:09:07;;;;;;;240.52;77.85;;;0.00;99.90;;;-1.46;100.00;97591.50;5084775;28;20431;-75
2023/03/16 05:11:33;;;;;;;265.83;85.75;;;0.00;99.90;;;-1.43;100.00;97591.16;5086817;28;20483;-76
2023/03/16 05:14:00;;;;;;;313.40;96.85;;;-0.10;99.90;;;-1.41;100.00;97578.81;5080043;28;20408;-76
2023/03/16 05:16:27;;;;;;;260.38;85.60;;;0.00;99.90;;;-1.46;100.00;97579.31;5079563;28;20540;-74
2023/03/16 05:18:53;;;;;;;285.23;89.82;;;-0.10;99.90;;;-1.45;100.00;97580.94;5076191;28;20406;-75
2023/03/16 05:21:20;;;;;;;287.80;85.05;;;0.00;99.90;;;-1.50;100.00;97591.00;5071314;28;20445;-74
2023/03/16 05:23:46;;;;;;;254.15;77.65;;;-0.10;99.90;;;-1.51;100.00;97588.59;5051218;28;20794;-75
2023/03/16 05:26:12;;;;;;;309.17;92.13;;;-0.10;99.90;;;-1.45;100.00;97583.53;5069155;28;20418;-76
2023/03/16 05:28:38;;;;;;;248.75;80.15;;;-0.10;99.90;;;-1.52;100.00;97587.00;5069478;28;20564;-76
2023/03/16 05:31:04;;;;;;;272.83;83.25;;;-0.10;99.90;;;-1.56;100.00;97576.13;5069522;28;20399;-77
2023/03/16 05:33:30;;;;;;;259.50;78.15;;;-0.10;99.90;;;-1.59;100.00;97579.06;5069371;28;20422;-76
2023/03/16 05:35:56;;;;;;;288.35;83.28;;;-0.20;99.90;;;-1.61;100.00;97581.84;5069669;28;20396;-76
2023/03/16 05:38:26;;;;;;;300.73;90.10;;;-0.20;99.90;;;-1.56;100.00;97584.72;5069477;28;20404;-77
2023/03/16 05:40:53;;;;;;;268.73;80.13;;;-0.20;99.90;;;-1.63;100.00;97583.78;5069630;28;20400;-76
2023/03/16 05:43:20;;;;;;;252.70;74.80;;;-0.20;99.90;;;-1.65;100.00;97583.13;5069323;28;20403;-76
2023/03/16 05:45:46;;;;;;;259.83;75.57;;;-0.20;99.90;;;-1.65;100.00;97577.94;5051094;28;20400;-76
2023/03/16 05:48:13;;;;;;;221.88;68.20;;;-0.20;99.90;;;-1.63;100.00;97572.59;5068870;28;20502;-76
2023/03/16 05:50:39;;;;;;;235.10;71.63;;;-0.20;99.90;;;-1.62;100.00;97580.22;5069368;28;20605;-77
2023/03/16 05:53:05;;;;;;;281.83;80.68;;;-0.20;99.90;;;-1.60;100.00;97580.03;5068656;28;20523;-77
2023/03/16 05:55:32;;;;;;;232.88;72.68;;;-0.20;99.90;;;-1.58;100.00;97572.91;5068767;28;20558;-77
2023/03/16 05:57:59;;;;;;;269.25;76.57;;;-0.20;99.90;;;-1.58;100.00;97567.72;5068737;28;20404;-80
2023/03/16 06:00:26;;;;;;;252.80;73.82;;;-0.10;99.90;;;-1.57;100.00;97569.31;5069098;28;20410;-80
2023/03/16 06:02:52;;;;;;;259.17;74.50;;;-0.10;99.90;;;-1.56;100.00;97563.16;5067966;28;20710;-79
2023/03/16 06:05:20;;;;;;;239.25;74.40;;;-0.10;99.90;;;-1.52;100.00;97564.44;5069110;28;20431;-79
2023/03/16 06:07:47;;;;;;;263.07;75.57;;;-0.10;99.90;;;-1.52;100.00;97566.22;5068809;28;20492;-80
2023/03/16 06:10:13;;;;;;;260.02;77.38;;;-0.10;99.90;;;-1.52;100.00;97567.03;5069129;28;20399;-80
2023/03/16 06:12:41;;;;;;;304.83;88.53;;;-0.10;99.90;;;-1.50;100.00;97572.84;5068578;28;20400;-80
2023/03/16 06:15:10;;;;;;;249.18;74.70;;;-0.10;99.90;;;-1.48;100.00;97572.69;5068875;28;20828;-80
2023/03/16 06:17:38;;;;;;;295.63;85.75;;;-0.10;99.90;;;-1.45;100.00;97564.56;5068876;28;20924;-80
2023/03/16 06:20:12;;;;;;;254.27;75.57;;;0.00;99.90;;;-1.44;100.00;97569.59;5066414;28;20803;-80
2023/03/16 06:22:40;;;;;;;267.02;80.05;;;0.00;99.90;;;-1.39;100.00;97569.06;5068383;28;20441;-80
2023/03/16 06:25:08;;;;;;;234.27;72.63;;;0.00;99.90;;;-1.38;100.00;97570.69;5068586;28;20396;-80
2023/03/16 06:27:35;;;;;;;248.40;76.78;;;0.00;99.90;;;-1.37;100.00;97573.13;5068452;28;20465;-80
2023/03/16 06:30:09;;;;;;;275.40;82.90;;;0.00;99.90;;;-1.33;100.00;97576.97;5053095;28;20439;-80
2023/03/16 06:32:36;;;;;;;244.73;76.33;;;0.10;99.90;;;-1.31;100.00;97580.22;5064592;28;20437;-79
2023/03/16 06:35:03;;;;;;;284.02;84.75;;;0.10;99.90;;;-1.24;100.00;97575.13;5065683;28;20435;-81
2023/03/16 06:37:30;;;;;;;284.60;85.00;;;0.10;99.90;;;-1.20;100.00;97582.41;5068483;28;20400;-82
2023/03/16 06:39:56;;;;;;;269.65;79.00;;;0.20;99.90;;;-1.15;100.00;97575.91;5066403;28;20403;-87
2023/03/16 06:42:22;;;;;;;306.25;87.05;;;0.20;99.90;;;-1.08;100.00;97567.25;5065416;28;20407;-81
2023/03/16 06:44:48;;;;;;;339.55;93.75;;;0.20;99.90;;;-1.01;100.00;97575.16;5068216;28;20939;-81
2023/03/16 06:47:16;;;;;;;304.45;84.95;;;0.30;99.90;;;-0.95;100.00;97577.84;5068586;28;20403;-81
2023/03/16 06:49:41;;;;;;;312.10;91.32;;;0.40;99.90;;;-0.89;100.00;97573.75;5050275;28;21116;-81
2023/03/16 06:52:09;;;;;;;330.85;87.18;;;0.40;99.90;;;-0.85;100.00;97578.44;5067921;28;20399;-81
2023/03/16 06:54:36;;;;;;;300.58;80.93;;;0.50;99.90;;;-0.80;100.00;97576.13;5049976;28;20415;-82
2023/03/16 06:57:02;;;;;;;288.77;78.35;;;0.50;99.90;;;-0.75;100.00;97575.59;5068238;28;20408;-79
2023/03/16 06:59:28;;;;;;;318.83;85.20;;;0.60;99.90;;;-0.69;100.00;97577.50;5068247;28;20396;-79
2023/03/16 07:01:54;;;;;;;306.60;88.88;;;0.60;99.90;;;-0.65;100.00;97573.56;5067967;28;20396;-79
2023/03/16 07:04:22;;;;;;;307.00;91.05;;;0.60;99.90;;;-0.61;100.00;97579.22;5068306;28;20408;-79
2023/03/16 07:06:48;;;;;;;297.57;89.60;;;0.70;99.90;;;-0.60;100.00;97583.44;5068524;28;20406;-80
2023/03/16 07:09:14;;;;;;;305.10;90.75;;;0.70;99.90;;;-0.54;100.00;97586.16;5068356;28;20844;-82
2023/03/16 07:11:40;;;;;;;349.13;91.68;;;0.70;99.90;;;-0.50;100.00;97584.00;5067532;28;20400;-79
2023/03/16 07:14:06;;;;;;;314.33;92.50;;;0.80;99.90;;;-0.47;100.00;97588.84;5068273;28;20421;-79
2023/03/16 07:16:32;;;;;;;342.35;94.05;;;0.80;99.90;;;-0.42;100.00;97586.53;5071610;28;20403;-80
2023/03/16 07:18:58;;;;;;;309.57;87.23;;;0.90;99.90;;;-0.36;100.00;97585.00;5070728;28;20488;-80
2023/03/16 07:21:25;;;;;;;323.45;90.93;;;0.90;99.90;;;-0.30;100.00;97590.28;5067319;28;20411;-80
2023/03/16 07:23:51;;;;;;;307.92;83.75;;;1.00;99.90;;;-0.26;100.00;97590.75;5071034;28;20408;-80
2023/03/16 07:26:17;;;;;;;340.50;87.38;;;1.00;99.90;;;-0.22;100.00;97594.59;5071210;28;20431;-80
2023/03/16 07:28:43;;;;;;;321.50;89.05;;;1.00;99.90;;;-0.18;100.00;97594.09;5071396;28;20999;-79
2023/03/16 07:31:09;;;;;;;324.80;81.25;;;1.10;99.90;;;-0.10;100.00;97601.81;5071780;28;20395;-75
2023/03/16 07:33:36;;;;;;;320.60;87.60;;;1.20;99.90;;;-0.05;100.00;97596.06;5071145;28;20412;-74
2023/03/16 07:36:05;;;;;;;324.10;89.95;;;1.20;99.90;;;0.02;100.00;97591.75;5070399;28;20399;-74
2023/03/16 07:38:33;;;;;;;296.23;82.95;;;1.30;99.90;;;0.08;100.00;97598.84;5064633;28;20414;-74
2023/03/16 07:40:59;;;;;;;306.13;86.85;;;1.30;99.90;;;0.13;100.00;97595.72;5070421;28;20465;-74
2023/03/16 07:43:26;;;;;;;350.90;85.63;;;1.40;99.90;;;0.21;100.00;97596.44;5065588;28;20776;-75
2023/03/16 07:45:52;;;;;;;350.27;89.93;;;1.50;99.90;;;0.23;100.00;97597.03;5068326;28;20419;-75
2023/03/16 07:48:18;;;;;;;325.58;87.47;;;1.40;99.90;;;0.36;100.00;97591.22;5067412;28;20420;-75
2023/03/16 07:50:47;;;;;;;289.85;83.93;;;1.50;99.90;;;0.41;100.00;97595.88;5067458;28;20440;-75
2023/03/16 07:53:16;;;;;;;264.50;83.72;;;1.60;99.90;;;0.44;100.00;97598.13;5067172;28;20422;-76
2023/03/16 07:55:44;;;;;;;259.40;77.53;;;1.70;99.90;;;0.53;100.00;97594.41;5070434;28;20921;-75
2023/03/16 07:58:10;;;;;;;252.65;80.07;;;1.70;99.90;;;0.54;100.00;97594.22;5067194;28;20435;-74
2023/03/16 08:00:37;;;;;;;257.73;75.57;;;1.70;99.90;;;0.66;100.00;97597.19;5067503;28;20429;-82
2023/03/16 08:03:04;;;;;;;229.68;74.78;;;1.80;99.90;;;0.69;100.00;97599.41;5068631;28;20480;-80
2023/03/16 08:05:33;;;;;;;254.73;72.40;;;1.90;99.90;;;0.85;100.00;97604.41;5069971;28;20443;-88
2023/03/16 08:08:00;;;;;;;247.82;77.85;;;2.00;99.90;;;0.83;100.00;97601.16;5069407;28;20415;-75
2023/03/16 08:10:26;;;;;;;242.90;74.57;;;2.00;99.90;;;0.90;100.00;97602.06;5068376;28;20494;-76
2023/03/16 08:12:54;;;;;;;255.13;77.68;;;2.10;99.90;;;0.91;100.00;97595.84;5069529;28;20465;-78
2023/03/16 08:15:20;;;;;;;230.57;68.70;;;2.10;99.90;;;1.09;100.00;97603.25;5071456;28;20407;-79
2023/03/16 08:17:46;;;;;;;236.63;71.53;;;2.30;99.90;;;1.19;100.00;97595.13;5074085;28;20405;-76
2023/03/16 08:20:14;;;;;;;189.55;62.28;;;2.40;99.90;;;1.30;100.00;97603.25;5074004;28;20408;-75
2023/03/16 08:22:40;;;;;;;221.17;67.43;;;2.40;99.90;;;1.34;100.00;97601.09;5068349;28;21007;-74
2023/03/16 08:25:10;;;;;;;194.18;60.88;;;2.50;99.90;;;1.46;100.00;97596.97;5070612;28;20921;-74
2023/03/16 08:27:37;;;;;;;218.15;61.35;;;2.60;99.90;;;1.51;100.00;97602.41;5069844;28;20407;-76
2023/03/16 08:30:06;;;;;;;216.13;62.15;;;2.60;99.90;;;1.61;100.00;97594.28;5070508;28;20893;-76
2023/03/16 08:32:32;;;;;;;215.48;60.53;;;2.70;99.90;;;1.64;100.00;97596.53;5068093;28;20416;-76
2023/03/16 08:34:59;;;;;;;201.63;59.10;;;2.80;99.90;;;1.68;100.00;97587.31;5070472;28;20399;-75
2023/03/16 08:37:26;;;;;;;199.82;56.03;;;2.80;99.90;;;1.80;100.00;97588.41;5052341;28;20443;-77
2023/03/16 08:39:53;;;;;;;165.82;52.45;;;2.90;99.90;;;1.74;100.00;97574.31;5070134;28;20404;-76
2023/03/16 08:42:19;;;;;;;157.88;48.45;;;2.90;99.90;;;1.87;100.00;97574.41;5070316;28;20417;-74
2023/03/16 08:44:46;;;;;;;174.40;53.30;;;2.90;99.90;;;1.85;100.00;97572.97;5070660;28;20729;-76
2023/03/16 08:47:13;;;;;;;147.45;48.22;;;3.00;99.90;;;1.92;100.00;97568.59;5069714;28;20396;-76
2023/03/16 08:49:40;;;;;;;139.97;45.60;;;3.00;99.90;;;2.05;100.00;97567.88;5070116;28;20496;-77
2023/03/16 08:52:09;;;;;;;140.55;46.38;;;3.10;99.90;;;2.06;100.00;97566.88;5069407;28;20891;-74
2023/03/16 08:54:36;;;;;;;124.67;40.03;;;3.20;99.90;;;2.31;100.00;97561.00;5068320;28;20485;-77
2023/03/16 08:57:02;;;;;;;151.57;43.33;;;3.30;99.90;;;2.38;100.00;97560.19;5070338;28;20403;-76
2023/03/16 08:59:28;;;;;;;127.95;43.38;;;3.50;99.90;;;2.41;100.00;97557.19;5069796;28;20411;-76
2023/03/16 09:01:54;;;;;;;106.25;39.70;;;3.50;99.90;;;2.33;100.00;97569.41;5064112;28;20784;-75
2023/03/16 09:04:22;;;;;;;127.18;39.20;;;3.50;99.90;;;2.47;100.00;97567.69;5067663;28;20454;-73
2023/03/16 09:06:50;;;;;;;117.85;36.72;;;3.60;99.90;;;2.57;100.00;97559.47;5057225;28;20976;-72
2023/03/16 09:09:16;;;;;;;115.57;37.25;;;3.60;99.90;;;2.75;100.00;97562.34;5069525;28;20411;-76
2023/03/16 09:11:43;;;;;;;88.47;34.90;;;3.80;99.90;;;2.71;100.00;97567.16;5068744;28;20452;-75
2023/03/16 09:14:10;;;;;;;86.37;34.67;;;3.80;99.90;;;2.85;100.00;97568.00;5069756;28;20419;-77
2023/03/16 09:16:37;;;;;;;72.10;31.20;;;3.90;99.90;;;2.69;100.00;97568.38;5067088;28;20558;-75
2023/03/16 09:19:04;;;;;;;79.75;33.25;;;3.90;99.90;;;2.69;100.00;97561.31;5067548;28;20405;-74
2023/03/16 09:21:33;;;;;;;96.18;36.03;;;3.80;99.90;;;2.83;100.00;97551.72;5068980;28;20927;-75
2023/03/16 09:23:59;;;;;;;90.05;32.55;;;3.90;99.90;;;2.97;100.00;97545.50;5068076;28;20412;-76
2023/03/16 09:26:27;;;;;;;72.88;30.75;;;4.10;99.90;;;2.89;100.00;97550.91;5068648;28;20418;-76
2023/03/16 09:28:53;;;;;;;72.87;30.30;;;4.00;99.90;;;2.97;100.00;97548.13;5069314;28;20446;-75
2023/03/16 09:31:20;;;;;;;65.80;29.15;;;4.10;99.90;;;3.08;100.00;97542.28;5068769;28;20765;-74
2023/03/16 09:33:46;;;;;;;71.40;28.25;;;4.20;99.90;;;3.27;100.00;97542.50;5056851;22;20454;-75
2023/03/16 09:36:13;;;;;;;52.40;23.95;;;4.30;99.90;;;3.43;100.00;97553.38;5026506;28;20416;-74
2023/03/16 09:38:42;;;;;;;49.35;23.00;;;4.50;99.90;;;3.44;100.00;97555.00;5028040;28;20754;-75
2023/03/16 09:41:25;;;;;;;54.38;21.98;;;4.50;99.90;;;3.65;100.00;97543.50;5020793;28;20927;-75
2023/03/16 09:44:04;;;;;;;44.97;20.08;;;4.60;99.90;;;3.83;100.00;97548.13;5027370;28;20414;-74
2023/03/16 09:46:37;;;;;;;42.00;19.13;;;4.90;99.90;;;4.02;100.00;97536.00;5022286;28;20395;-73
2023/03/16 09:49:03;;;;;;;36.67;17.00;;;5.00;99.90;;;4.28;100.00;97525.44;5029348;28;20470;-73
2023/03/16 09:51:38;;;;;;;29.13;15.07;;;5.20;99.90;;;4.56;100.00;97525.09;5028742;28;20776;-75
2023/03/16 09:54:20;;;;;;;26.50;14.97;;;5.50;99.90;;;4.52;100.00;97524.72;5027306;28;20415;-74
2023/03/16 09:57:06;;;;;;;27.77;13.27;;;5.60;99.90;;;4.69;100.00;97527.66;5022234;28;20409;-75
2023/03/16 10:07:11;;;;;;;17.15;10.50;;;6.30;99.90;;;5.64;100.00;97525.78;5028033;28;20401;-75
2023/03/16 10:09:49;;;;;;;14.90;9.98;;;6.50;99.90;;;5.42;100.00;97526.13;5022062;28;20506;-76